sensor_id;sensor_type;location;lat;lon;timestamp;P1;durP1;ratioP1;P2;durP2;ratioP2
3696;SDS011;60662;48.810;8.872;2024-01-30T07:28:53;14.80;;;5.38;;
3696;SDS011;60662;48.810;8.872;2024-01-30T07:54:26;21.25;;;11.32;;
3696;SDS011;60662;48.810;8.872;2024-01-30T07:56:24;21.10;;;11.98;;
3696;SDS011;60662;48.810;8.872;2024-01-30T07:57:25;24.05;;;11.85;;
3696;SDS011;60662;48.810;8.872;2024-01-30T07:58:27;18.08;;;10.40;;
3696;SDS011;60662;48.810;8.872;2024-01-30T07:59:28;16.13;;;9.18;;
3696;SDS011;60662;48.810;8.872;2024-01-30T08:00:30;18.08;;;7.70;;
3696;SDS011;60662;48.810;8.872;2024-01-30T08:01:31;14.23;;;6.35;;
3696;SDS011;60662;48.810;8.872;2024-01-30T08:02:33;15.68;;;6.10;;
3696;SDS011;60662;48.810;8.872;2024-01-30T08:03:34;14.07;;;6.70;;
3696;SDS011;60662;48.810;8.872;2024-01-30T08:04:35;12.13;;;6.65;;
3696;SDS011;60662;48.810;8.872;2024-01-30T08:05:37;12.52;;;6.60;;
3696;SDS011;60662;48.810;8.872;2024-01-30T08:06:40;11.68;;;6.97;;
3696;SDS011;60662;48.810;8.872;2024-01-30T08:07:44;11.98;;;6.18;;
3696;SDS011;60662;48.810;8.872;2024-01-30T08:08:47;14.45;;;7.03;;
3696;SDS011;60662;48.810;8.872;2024-01-30T08:09:48;12.80;;;6.43;;
3696;SDS011;60662;48.810;8.872;2024-01-30T08:10:50;15.38;;;7.50;;
3696;SDS011;60662;48.810;8.872;2024-01-30T08:11:51;11.88;;;6.82;;
3696;SDS011;60662;48.810;8.872;2024-01-30T08:12:52;23.52;;;12.60;;
3696;SDS011;60662;48.810;8.872;2024-01-30T08:13:54;61.88;;;27.30;;
3696;SDS011;60662;48.810;8.872;2024-01-30T08:14:55;103.72;;;43.90;;
3696;SDS011;60662;48.810;8.872;2024-01-30T08:15:56;51.28;;;23.92;;
3696;SDS011;60662;48.810;8.872;2024-01-30T08:16:58;21.88;;;10.32;;
3696;SDS011;60662;48.810;8.872;2024-01-30T08:17:59;36.10;;;18.05;;
3696;SDS011;60662;48.810;8.872;2024-01-30T08:19:00;60.58;;;28.30;;
3696;SDS011;60662;48.810;8.872;2024-01-30T08:20:02;50.55;;;24.10;;
3696;SDS011;60662;48.810;8.872;2024-01-30T08:21:06;35.45;;;20.55;;
3696;SDS011;60662;48.810;8.872;2024-01-30T08:22:07;19.98;;;11.45;;
3696;SDS011;60662;48.810;8.872;2024-01-30T08:24:07;15.30;;;7.85;;
3696;SDS011;60662;48.810;8.872;2024-01-30T08:25:09;22.77;;;9.30;;
3696;SDS011;60662;48.810;8.872;2024-01-30T08:26:11;14.20;;;8.07;;
3696;SDS011;60662;48.810;8.872;2024-01-30T08:27:12;14.85;;;8.45;;
3696;SDS011;60662;48.810;8.872;2024-01-30T08:28:14;14.98;;;8.52;;
3696;SDS011;60662;48.810;8.872;2024-01-30T08:29:18;19.02;;;8.98;;
3696;SDS011;60662;48.810;8.872;2024-01-30T08:30:19;20.30;;;9.57;;
3696;SDS011;60662;48.810;8.872;2024-01-30T08:31:21;16.88;;;8.95;;
3696;SDS011;60662;48.810;8.872;2024-01-30T08:32:22;14.10;;;8.00;;
3696;SDS011;60662;48.810;8.872;2024-01-30T08:33:25;16.25;;;7.50;;
3696;SDS011;60662;48.810;8.872;2024-01-30T08:34:26;16.13;;;8.52;;
3696;SDS011;60662;48.810;8.872;2024-01-30T08:35:28;16.35;;;8.88;;
3696;SDS011;60662;48.810;8.872;2024-01-30T08:36:33;17.38;;;7.30;;
3696;SDS011;60662;48.810;8.872;2024-01-30T08:37:34;17.63;;;8.00;;
3696;SDS011;60662;48.810;8.872;2024-01-30T08:38:36;17.50;;;8.20;;
3696;SDS011;60662;48.810;8.872;2024-01-30T08:39:38;15.68;;;7.80;;
3696;SDS011;60662;48.810;8.872;2024-01-30T08:40:39;19.90;;;8.40;;
3696;SDS011;60662;48.810;8.872;2024-01-30T08:41:41;16.77;;;9.40;;
3696;SDS011;60662;48.810;8.872;2024-01-30T08:42:42;20.20;;;10.82;;
3696;SDS011;60662;48.810;8.872;2024-01-30T08:43:44;16.48;;;8.73;;
3696;SDS011;60662;48.810;8.872;2024-01-30T08:44:45;28.65;;;10.63;;
3696;SDS011;60662;48.810;8.872;2024-01-30T08:45:47;21.40;;;11.38;;
3696;SDS011;60662;48.810;8.872;2024-01-30T08:46:48;18.35;;;10.48;;
3696;SDS011;60662;48.810;8.872;2024-01-30T08:47:51;18.17;;;9.57;;
3696;SDS011;60662;48.810;8.872;2024-01-30T08:48:52;18.35;;;9.43;;
3696;SDS011;60662;48.810;8.872;2024-01-30T08:49:54;17.45;;;10.45;;
3696;SDS011;60662;48.810;8.872;2024-01-30T08:50:56;19.95;;;10.10;;
3696;SDS011;60662;48.810;8.872;2024-01-30T08:51:57;22.70;;;10.02;;
3696;SDS011;60662;48.810;8.872;2024-01-30T08:52:59;24.33;;;10.10;;
3696;SDS011;60662;48.810;8.872;2024-01-30T08:54:00;16.50;;;8.75;;
3696;SDS011;60662;48.810;8.872;2024-01-30T08:55:02;19.67;;;8.88;;
3696;SDS011;60662;48.810;8.872;2024-01-30T08:56:05;15.77;;;8.75;;
3696;SDS011;60662;48.810;8.872;2024-01-30T08:57:07;16.08;;;9.32;;
3696;SDS011;60662;48.810;8.872;2024-01-30T08:58:08;21.35;;;8.95;;
3696;SDS011;60662;48.810;8.872;2024-01-30T08:59:10;17.20;;;9.00;;
3696;SDS011;60662;48.810;8.872;2024-01-30T09:00:14;17.83;;;8.85;;
3696;SDS011;60662;48.810;8.872;2024-01-30T09:01:15;14.57;;;8.93;;
3696;SDS011;60662;48.810;8.872;2024-01-30T09:02:17;16.15;;;8.15;;
3696;SDS011;60662;48.810;8.872;2024-01-30T09:03:19;16.08;;;8.45;;
3696;SDS011;60662;48.810;8.872;2024-01-30T09:04:21;15.93;;;7.68;;
3696;SDS011;60662;48.810;8.872;2024-01-30T09:05:26;18.90;;;8.35;;
3696;SDS011;60662;48.810;8.872;2024-01-30T09:06:27;12.70;;;6.65;;
3696;SDS011;60662;48.810;8.872;2024-01-30T09:07:30;14.05;;;6.55;;
3696;SDS011;60662;48.810;8.872;2024-01-30T09:08:31;14.75;;;7.07;;
3696;SDS011;60662;48.810;8.872;2024-01-30T09:09:32;12.48;;;6.78;;
3696;SDS011;60662;48.810;8.872;2024-01-30T09:10:34;13.80;;;6.22;;
3696;SDS011;60662;48.810;8.872;2024-01-30T09:11:35;13.48;;;6.35;;
3696;SDS011;60662;48.810;8.872;2024-01-30T09:12:37;13.13;;;5.97;;
3696;SDS011;60662;48.810;8.872;2024-01-30T09:13:39;9.75;;;5.85;;
3696;SDS011;60662;48.810;8.872;2024-01-30T09:14:40;12.38;;;7.28;;
3696;SDS011;60662;48.810;8.872;2024-01-30T09:15:42;15.18;;;7.82;;
3696;SDS011;60662;48.810;8.872;2024-01-30T09:16:44;20.45;;;6.97;;
3696;SDS011;60662;48.810;8.872;2024-01-30T09:17:45;11.82;;;8.00;;
3696;SDS011;60662;48.810;8.872;2024-01-30T09:18:46;12.70;;;6.97;;
3696;SDS011;60662;48.810;8.872;2024-01-30T09:19:48;12.70;;;7.85;;
3696;SDS011;60662;48.810;8.872;2024-01-30T09:20:49;11.77;;;6.75;;
3696;SDS011;60662;48.810;8.872;2024-01-30T09:21:51;16.88;;;7.55;;
3696;SDS011;60662;48.810;8.872;2024-01-30T09:22:52;14.30;;;8.00;;
3696;SDS011;60662;48.810;8.872;2024-01-30T09:23:54;16.67;;;7.90;;
3696;SDS011;60662;48.810;8.872;2024-01-30T09:24:55;13.90;;;7.15;;
3696;SDS011;60662;48.810;8.872;2024-01-30T09:25:57;14.43;;;7.47;;
3696;SDS011;60662;48.810;8.872;2024-01-30T09:26:58;15.07;;;8.02;;
3696;SDS011;60662;48.810;8.872;2024-01-30T09:27:59;15.95;;;7.47;;
3696;SDS011;60662;48.810;8.872;2024-01-30T09:29:01;12.18;;;7.00;;
3696;SDS011;60662;48.810;8.872;2024-01-30T09:30:02;10.20;;;6.65;;
3696;SDS011;60662;48.810;8.872;2024-01-30T09:31:09;12.48;;;6.93;;
3696;SDS011;60662;48.810;8.872;2024-01-30T09:32:10;13.70;;;6.72;;
3696;SDS011;60662;48.810;8.872;2024-01-30T09:33:11;15.85;;;6.35;;
3696;SDS011;60662;48.810;8.872;2024-01-30T09:34:13;12.43;;;6.57;;
3696;SDS011;60662;48.810;8.872;2024-01-30T09:35:15;14.20;;;7.43;;
3696;SDS011;60662;48.810;8.872;2024-01-30T09:36:16;12.95;;;7.10;;
3696;SDS011;60662;48.810;8.872;2024-01-30T09:37:19;18.45;;;6.20;;
3696;SDS011;60662;48.810;8.872;2024-01-30T09:38:24;12.63;;;6.60;;
3696;SDS011;60662;48.810;8.872;2024-01-30T09:39:25;12.20;;;6.78;;
3696;SDS011;60662;48.810;8.872;2024-01-30T09:40:26;10.60;;;6.50;;
3696;SDS011;60662;48.810;8.872;2024-01-30T09:41:29;12.30;;;6.15;;
3696;SDS011;60662;48.810;8.872;2024-01-30T09:42:33;17.73;;;7.10;;
3696;SDS011;60662;48.810;8.872;2024-01-30T09:43:35;14.40;;;6.53;;
3696;SDS011;60662;48.810;8.872;2024-01-30T09:44:38;12.40;;;6.70;;
3696;SDS011;60662;48.810;8.872;2024-01-30T09:45:43;13.20;;;5.93;;
3696;SDS011;60662;48.810;8.872;2024-01-30T09:46:46;14.27;;;6.32;;
3696;SDS011;60662;48.810;8.872;2024-01-30T09:47:49;12.55;;;6.68;;
3696;SDS011;60662;48.810;8.872;2024-01-30T09:48:51;22.17;;;6.95;;
3696;SDS011;60662;48.810;8.872;2024-01-30T09:49:53;12.02;;;6.80;;
3696;SDS011;60662;48.810;8.872;2024-01-30T09:50:54;13.35;;;6.50;;
3696;SDS011;60662;48.810;8.872;2024-01-30T09:51:57;14.43;;;6.82;;
3696;SDS011;60662;48.810;8.872;2024-01-30T09:52:59;15.70;;;6.57;;
3696;SDS011;60662;48.810;8.872;2024-01-30T09:54:01;11.38;;;6.22;;
3696;SDS011;60662;48.810;8.872;2024-01-30T09:55:04;15.40;;;6.60;;
3696;SDS011;60662;48.810;8.872;2024-01-30T09:56:06;11.98;;;6.90;;
3696;SDS011;60662;48.810;8.872;2024-01-30T09:57:07;11.93;;;7.18;;
3696;SDS011;60662;48.810;8.872;2024-01-30T09:58:09;16.70;;;6.78;;
3696;SDS011;60662;48.810;8.872;2024-01-30T09:59:11;11.82;;;6.38;;
3696;SDS011;60662;48.810;8.872;2024-01-30T10:00:12;16.20;;;7.15;;
3696;SDS011;60662;48.810;8.872;2024-01-30T10:01:13;12.82;;;5.93;;
3696;SDS011;60662;48.810;8.872;2024-01-30T10:02:20;15.65;;;7.15;;
3696;SDS011;60662;48.810;8.872;2024-01-30T10:03:21;18.15;;;8.07;;
3696;SDS011;60662;48.810;8.872;2024-01-30T10:04:23;24.40;;;9.23;;
3696;SDS011;60662;48.810;8.872;2024-01-30T10:05:26;20.08;;;8.77;;
3696;SDS011;60662;48.810;8.872;2024-01-30T10:06:28;16.60;;;8.38;;
3696;SDS011;60662;48.810;8.872;2024-01-30T10:07:30;14.82;;;7.65;;
3696;SDS011;60662;48.810;8.872;2024-01-30T10:08:32;14.80;;;7.95;;
3696;SDS011;60662;48.810;8.872;2024-01-30T10:09:34;17.88;;;7.88;;
3696;SDS011;60662;48.810;8.872;2024-01-30T10:10:36;17.50;;;8.90;;
3696;SDS011;60662;48.810;8.872;2024-01-30T10:11:38;19.75;;;9.27;;
3696;SDS011;60662;48.810;8.872;2024-01-30T10:12:39;16.20;;;8.77;;
3696;SDS011;60662;48.810;8.872;2024-01-30T10:13:40;14.15;;;8.20;;
3696;SDS011;60662;48.810;8.872;2024-01-30T10:14:42;14.70;;;7.78;;
3696;SDS011;60662;48.810;8.872;2024-01-30T10:15:44;12.43;;;6.93;;
3696;SDS011;60662;48.810;8.872;2024-01-30T10:16:46;17.55;;;9.20;;
3696;SDS011;60662;48.810;8.872;2024-01-30T10:17:47;15.98;;;8.30;;
3696;SDS011;60662;48.810;8.872;2024-01-30T10:18:49;16.55;;;7.85;;
3696;SDS011;60662;48.810;8.872;2024-01-30T10:19:50;16.92;;;6.65;;
3696;SDS011;60662;48.810;8.872;2024-01-30T10:20:52;21.05;;;9.02;;
3696;SDS011;60662;48.810;8.872;2024-01-30T10:21:54;13.85;;;7.70;;
3696;SDS011;60662;48.810;8.872;2024-01-30T10:22:55;25.02;;;9.20;;
3696;SDS011;60662;48.810;8.872;2024-01-30T10:23:57;24.50;;;12.30;;
3696;SDS011;60662;48.810;8.872;2024-01-30T10:24:59;22.50;;;12.23;;
3696;SDS011;60662;48.810;8.872;2024-01-30T10:26:07;19.30;;;8.88;;
3696;SDS011;60662;48.810;8.872;2024-01-30T10:27:08;19.95;;;10.35;;
3696;SDS011;60662;48.810;8.872;2024-01-30T10:28:10;37.63;;;15.90;;
3696;SDS011;60662;48.810;8.872;2024-01-30T10:29:11;36.22;;;15.15;;
3696;SDS011;60662;48.810;8.872;2024-01-30T10:30:13;66.78;;;23.63;;
3696;SDS011;60662;48.810;8.872;2024-01-30T10:31:18;70.05;;;28.77;;
3696;SDS011;60662;48.810;8.872;2024-01-30T10:32:20;64.50;;;26.58;;
3696;SDS011;60662;48.810;8.872;2024-01-30T10:33:22;48.13;;;21.20;;
3696;SDS011;60662;48.810;8.872;2024-01-30T10:34:23;46.10;;;21.95;;
3696;SDS011;60662;48.810;8.872;2024-01-30T10:35:25;59.10;;;23.77;;
3696;SDS011;60662;48.810;8.872;2024-01-30T10:36:28;33.08;;;16.45;;
3696;SDS011;60662;48.810;8.872;2024-01-30T10:37:29;38.70;;;16.77;;
3696;SDS011;60662;48.810;8.872;2024-01-30T10:38:32;33.95;;;15.05;;
3696;SDS011;60662;48.810;8.872;2024-01-30T10:39:36;36.17;;;15.30;;
3696;SDS011;60662;48.810;8.872;2024-01-30T10:40:38;32.53;;;16.58;;
3696;SDS011;60662;48.810;8.872;2024-01-30T10:41:43;39.22;;;17.67;;
3696;SDS011;60662;48.810;8.872;2024-01-30T10:42:45;37.20;;;17.83;;
3696;SDS011;60662;48.810;8.872;2024-01-30T10:43:50;54.90;;;27.13;;
3696;SDS011;60662;48.810;8.872;2024-01-30T10:45:08;72.70;;;32.00;;
3696;SDS011;60662;48.810;8.872;2024-01-30T10:46:11;52.50;;;25.80;;
3696;SDS011;60662;48.810;8.872;2024-01-30T10:47:18;38.72;;;20.50;;
3696;SDS011;60662;48.810;8.872;2024-01-30T10:48:22;43.97;;;23.98;;
3696;SDS011;60662;48.810;8.872;2024-01-30T10:49:26;39.75;;;21.70;;
3696;SDS011;60662;48.810;8.872;2024-01-30T10:50:28;35.05;;;19.02;;
3696;SDS011;60662;48.810;8.872;2024-01-30T10:51:32;34.47;;;18.42;;
3696;SDS011;60662;48.810;8.872;2024-01-30T10:52:33;42.53;;;18.05;;
3696;SDS011;60662;48.810;8.872;2024-01-30T10:53:35;34.63;;;17.58;;
3696;SDS011;60662;48.810;8.872;2024-01-30T10:54:37;35.63;;;16.70;;
3696;SDS011;60662;48.810;8.872;2024-01-30T10:55:38;28.58;;;16.15;;
3696;SDS011;60662;48.810;8.872;2024-01-30T10:56:40;32.47;;;16.70;;
3696;SDS011;60662;48.810;8.872;2024-01-30T10:57:42;41.90;;;15.40;;
3696;SDS011;60662;48.810;8.872;2024-01-30T10:58:44;37.17;;;15.27;;
3696;SDS011;60662;48.810;8.872;2024-01-30T10:59:45;29.83;;;14.02;;
3696;SDS011;60662;48.810;8.872;2024-01-30T11:00:48;33.90;;;13.70;;
3696;SDS011;60662;48.810;8.872;2024-01-30T11:01:50;29.30;;;14.48;;
3696;SDS011;60662;48.810;8.872;2024-01-30T11:02:52;24.50;;;13.77;;
3696;SDS011;60662;48.810;8.872;2024-01-30T11:03:54;25.20;;;12.40;;
3696;SDS011;60662;48.810;8.872;2024-01-30T11:04:58;28.73;;;14.02;;
3696;SDS011;60662;48.810;8.872;2024-01-30T11:06:01;27.15;;;14.82;;
3696;SDS011;60662;48.810;8.872;2024-01-30T11:07:13;30.55;;;15.15;;
3696;SDS011;60662;48.810;8.872;2024-01-30T11:08:22;28.88;;;13.25;;
3696;SDS011;60662;48.810;8.872;2024-01-30T11:09:23;28.55;;;14.63;;
3696;SDS011;60662;48.810;8.872;2024-01-30T11:10:25;35.13;;;18.15;;
3696;SDS011;60662;48.810;8.872;2024-01-30T11:11:26;29.80;;;16.08;;
3696;SDS011;60662;48.810;8.872;2024-01-30T11:12:28;30.20;;;14.07;;
3696;SDS011;60662;48.810;8.872;2024-01-30T11:13:29;34.90;;;12.45;;
3696;SDS011;60662;48.810;8.872;2024-01-30T11:14:31;23.15;;;12.13;;
3696;SDS011;60662;48.810;8.872;2024-01-30T11:15:37;23.98;;;10.68;;
3696;SDS011;60662;48.810;8.872;2024-01-30T11:16:39;18.85;;;10.55;;
3696;SDS011;60662;48.810;8.872;2024-01-30T11:18:54;23.80;;;11.18;;
3696;SDS011;60662;48.810;8.872;2024-01-30T11:20:01;23.10;;;10.55;;
3696;SDS011;60662;48.810;8.872;2024-01-30T11:21:04;20.85;;;10.85;;
3696;SDS011;60662;48.810;8.872;2024-01-30T11:22:08;21.27;;;11.73;;
3696;SDS011;60662;48.810;8.872;2024-01-30T11:23:13;21.40;;;11.18;;
3696;SDS011;60662;48.810;8.872;2024-01-30T11:24:15;23.45;;;11.25;;
3696;SDS011;60662;48.810;8.872;2024-01-30T11:25:17;19.13;;;9.93;;
3696;SDS011;60662;48.810;8.872;2024-01-30T11:26:23;19.20;;;9.90;;
3696;SDS011;60662;48.810;8.872;2024-01-30T11:27:24;25.50;;;10.93;;
3696;SDS011;60662;48.810;8.872;2024-01-30T11:28:32;18.05;;;9.68;;
3696;SDS011;60662;48.810;8.872;2024-01-30T11:29:34;22.75;;;9.75;;
3696;SDS011;60662;48.810;8.872;2024-01-30T11:30:36;21.17;;;10.38;;
3696;SDS011;60662;48.810;8.872;2024-01-30T11:31:37;18.42;;;9.82;;
3696;SDS011;60662;48.810;8.872;2024-01-30T11:32:39;19.73;;;9.48;;
3696;SDS011;60662;48.810;8.872;2024-01-30T11:33:40;19.88;;;10.65;;
3696;SDS011;60662;48.810;8.872;2024-01-30T11:34:42;16.20;;;9.65;;
3696;SDS011;60662;48.810;8.872;2024-01-30T11:35:44;15.52;;;9.13;;
3696;SDS011;60662;48.810;8.872;2024-01-30T11:36:48;15.20;;;8.93;;
3696;SDS011;60662;48.810;8.872;2024-01-30T11:37:53;14.25;;;8.18;;
3696;SDS011;60662;48.810;8.872;2024-01-30T11:38:55;18.42;;;9.38;;
3696;SDS011;60662;48.810;8.872;2024-01-30T11:39:57;15.43;;;8.57;;
3696;SDS011;60662;48.810;8.872;2024-01-30T11:40:59;16.55;;;9.30;;
3696;SDS011;60662;48.810;8.872;2024-01-30T11:42:01;25.52;;;9.60;;
3696;SDS011;60662;48.810;8.872;2024-01-30T11:43:06;17.80;;;9.07;;
3696;SDS011;60662;48.810;8.872;2024-01-30T11:44:08;18.40;;;9.05;;
3696;SDS011;60662;48.810;8.872;2024-01-30T11:45:10;22.23;;;10.25;;
3696;SDS011;60662;48.810;8.872;2024-01-30T11:46:12;22.45;;;11.65;;
3696;SDS011;60662;48.810;8.872;2024-01-30T11:47:14;17.25;;;10.40;;
3696;SDS011;60662;48.810;8.872;2024-01-30T11:48:15;19.92;;;11.00;;
3696;SDS011;60662;48.810;8.872;2024-01-30T11:49:17;29.48;;;13.75;;
3696;SDS011;60662;48.810;8.872;2024-01-30T11:50:19;19.33;;;12.10;;
3696;SDS011;60662;48.810;8.872;2024-01-30T11:51:20;32.92;;;12.95;;
3696;SDS011;60662;48.810;8.872;2024-01-30T11:52:22;23.90;;;12.10;;
3696;SDS011;60662;48.810;8.872;2024-01-30T11:53:23;24.25;;;8.68;;
3696;SDS011;60662;48.810;8.872;2024-01-30T11:54:25;19.63;;;10.02;;
3696;SDS011;60662;48.810;8.872;2024-01-30T11:55:26;23.23;;;7.65;;
3696;SDS011;60662;48.810;8.872;2024-01-30T11:56:33;18.45;;;8.20;;
3696;SDS011;60662;48.810;8.872;2024-01-30T11:57:34;25.58;;;10.95;;
3696;SDS011;60662;48.810;8.872;2024-01-30T11:58:42;15.70;;;9.70;;
3696;SDS011;60662;48.810;8.872;2024-01-30T11:59:43;20.05;;;9.25;;
3696;SDS011;60662;48.810;8.872;2024-01-30T12:00:52;21.00;;;11.43;;
3696;SDS011;60662;48.810;8.872;2024-01-30T12:01:54;23.80;;;10.80;;
3696;SDS011;60662;48.810;8.872;2024-01-30T12:02:56;17.35;;;11.45;;
3696;SDS011;60662;48.810;8.872;2024-01-30T12:03:58;19.73;;;10.65;;
3696;SDS011;60662;48.810;8.872;2024-01-30T12:05:03;24.50;;;12.00;;
3696;SDS011;60662;48.810;8.872;2024-01-30T12:06:05;23.58;;;11.85;;
3696;SDS011;60662;48.810;8.872;2024-01-30T12:07:07;27.48;;;11.50;;
3696;SDS011;60662;48.810;8.872;2024-01-30T12:08:14;22.75;;;12.20;;
3696;SDS011;60662;48.810;8.872;2024-01-30T12:09:15;25.70;;;12.35;;
3696;SDS011;60662;48.810;8.872;2024-01-30T12:10:18;28.30;;;14.90;;
3696;SDS011;60662;48.810;8.872;2024-01-30T12:11:20;25.83;;;14.63;;
3696;SDS011;60662;48.810;8.872;2024-01-30T12:12:22;31.10;;;14.75;;
3696;SDS011;60662;48.810;8.872;2024-01-30T12:13:25;29.50;;;15.70;;
3696;SDS011;60662;48.810;8.872;2024-01-30T12:14:30;28.70;;;14.63;;
3696;SDS011;60662;48.810;8.872;2024-01-30T12:15:31;29.25;;;14.82;;
3696;SDS011;60662;48.810;8.872;2024-01-30T12:16:32;21.80;;;11.85;;
3696;SDS011;60662;48.810;8.872;2024-01-30T12:17:34;24.10;;;10.70;;
3696;SDS011;60662;48.810;8.872;2024-01-30T12:18:36;27.48;;;13.75;;
3696;SDS011;60662;48.810;8.872;2024-01-30T12:19:37;25.25;;;14.45;;
3696;SDS011;60662;48.810;8.872;2024-01-30T12:20:38;26.83;;;12.70;;
3696;SDS011;60662;48.810;8.872;2024-01-30T12:21:40;19.48;;;10.70;;
3696;SDS011;60662;48.810;8.872;2024-01-30T12:22:45;28.73;;;13.65;;
3696;SDS011;60662;48.810;8.872;2024-01-30T12:23:46;22.98;;;14.13;;
3696;SDS011;60662;48.810;8.872;2024-01-30T12:24:48;29.92;;;13.15;;
3696;SDS011;60662;48.810;8.872;2024-01-30T12:25:51;21.30;;;12.13;;
3696;SDS011;60662;48.810;8.872;2024-01-30T12:26:56;20.10;;;11.30;;
3696;SDS011;60662;48.810;8.872;2024-01-30T12:27:57;21.00;;;12.00;;
3696;SDS011;60662;48.810;8.872;2024-01-30T12:28:59;21.48;;;12.48;;
3696;SDS011;60662;48.810;8.872;2024-01-30T12:30:09;25.10;;;12.27;;
3696;SDS011;60662;48.810;8.872;2024-01-30T12:31:11;21.20;;;11.32;;
3696;SDS011;60662;48.810;8.872;2024-01-30T12:32:16;17.80;;;10.88;;
3696;SDS011;60662;48.810;8.872;2024-01-30T12:33:18;19.25;;;10.82;;
3696;SDS011;60662;48.810;8.872;2024-01-30T12:34:20;26.30;;;10.57;;
3696;SDS011;60662;48.810;8.872;2024-01-30T12:35:22;24.95;;;11.55;;
3696;SDS011;60662;48.810;8.872;2024-01-30T12:36:24;19.45;;;11.23;;
3696;SDS011;60662;48.810;8.872;2024-01-30T12:37:26;24.83;;;12.02;;
3696;SDS011;60662;48.810;8.872;2024-01-30T12:38:28;22.13;;;12.05;;
3696;SDS011;60662;48.810;8.872;2024-01-30T12:39:30;17.45;;;11.63;;
3696;SDS011;60662;48.810;8.872;2024-01-30T12:40:33;21.13;;;11.73;;
3696;SDS011;60662;48.810;8.872;2024-01-30T12:41:34;19.15;;;11.02;;
3696;SDS011;60662;48.810;8.872;2024-01-30T12:42:36;19.67;;;11.15;;
3696;SDS011;60662;48.810;8.872;2024-01-30T12:43:38;17.00;;;9.40;;
3696;SDS011;60662;48.810;8.872;2024-01-30T12:44:39;18.00;;;10.05;;
3696;SDS011;60662;48.810;8.872;2024-01-30T12:45:41;19.38;;;8.90;;
3696;SDS011;60662;48.810;8.872;2024-01-30T12:46:43;13.45;;;7.10;;
3696;SDS011;60662;48.810;8.872;2024-01-30T12:47:46;15.90;;;4.80;;
3696;SDS011;60662;48.810;8.872;2024-01-30T12:48:48;12.57;;;7.07;;
3696;SDS011;60662;48.810;8.872;2024-01-30T12:49:50;11.52;;;5.82;;
3696;SDS011;60662;48.810;8.872;2024-01-30T12:50:54;18.13;;;6.03;;
3696;SDS011;60662;48.810;8.872;2024-01-30T12:51:56;13.23;;;4.55;;
3696;SDS011;60662;48.810;8.872;2024-01-30T12:52:58;9.73;;;3.72;;
3696;SDS011;60662;48.810;8.872;2024-01-30T12:54:03;8.27;;;5.15;;
3696;SDS011;60662;48.810;8.872;2024-01-30T12:55:05;6.57;;;4.15;;
3696;SDS011;60662;48.810;8.872;2024-01-30T12:56:06;7.97;;;3.38;;
3696;SDS011;60662;48.810;8.872;2024-01-30T12:57:08;6.03;;;3.28;;
3696;SDS011;60662;48.810;8.872;2024-01-30T12:58:09;11.07;;;4.10;;
3696;SDS011;60662;48.810;8.872;2024-01-30T12:59:10;8.35;;;4.32;;
3696;SDS011;60662;48.810;8.872;2024-01-30T13:00:12;7.43;;;3.90;;
3696;SDS011;60662;48.810;8.872;2024-01-30T13:01:13;9.27;;;4.32;;
3696;SDS011;60662;48.810;8.872;2024-01-30T13:02:14;6.32;;;4.18;;
3696;SDS011;60662;48.810;8.872;2024-01-30T13:03:16;7.88;;;4.18;;
3696;SDS011;60662;48.810;8.872;2024-01-30T13:04:17;6.13;;;3.80;;
3696;SDS011;60662;48.810;8.872;2024-01-30T13:05:19;8.82;;;3.58;;
3696;SDS011;60662;48.810;8.872;2024-01-30T13:06:20;10.15;;;3.50;;
3696;SDS011;60662;48.810;8.872;2024-01-30T13:07:22;5.82;;;3.50;;
3696;SDS011;60662;48.810;8.872;2024-01-30T13:08:23;5.18;;;2.65;;
3696;SDS011;60662;48.810;8.872;2024-01-30T13:09:25;6.35;;;3.63;;
3696;SDS011;60662;48.810;8.872;2024-01-30T13:10:26;8.00;;;3.40;;
3696;SDS011;60662;48.810;8.872;2024-01-30T13:11:28;12.35;;;3.95;;
3696;SDS011;60662;48.810;8.872;2024-01-30T13:12:30;7.05;;;3.40;;
3696;SDS011;60662;48.810;8.872;2024-01-30T13:13:33;7.10;;;3.15;;
3696;SDS011;60662;48.810;8.872;2024-01-30T13:14:34;5.35;;;2.75;;
3696;SDS011;60662;48.810;8.872;2024-01-30T13:15:36;5.28;;;2.90;;
3696;SDS011;60662;48.810;8.872;2024-01-30T13:16:37;8.27;;;3.95;;
3696;SDS011;60662;48.810;8.872;2024-01-30T13:17:39;8.02;;;3.25;;
3696;SDS011;60662;48.810;8.872;2024-01-30T13:18:40;6.40;;;2.90;;
3696;SDS011;60662;48.810;8.872;2024-01-30T13:19:42;7.82;;;3.92;;
3696;SDS011;60662;48.810;8.872;2024-01-30T13:20:43;11.10;;;4.22;;
3696;SDS011;60662;48.810;8.872;2024-01-30T13:21:45;7.75;;;3.55;;
3696;SDS011;60662;48.810;8.872;2024-01-30T13:22:47;9.27;;;3.92;;
3696;SDS011;60662;48.810;8.872;2024-01-30T13:23:50;6.00;;;3.38;;
3696;SDS011;60662;48.810;8.872;2024-01-30T13:24:55;8.98;;;3.45;;
3696;SDS011;60662;48.810;8.872;2024-01-30T13:25:56;11.60;;;3.03;;
3696;SDS011;60662;48.810;8.872;2024-01-30T13:26:59;6.53;;;3.30;;
3696;SDS011;60662;48.810;8.872;2024-01-30T13:28:01;7.10;;;3.30;;
3696;SDS011;60662;48.810;8.872;2024-01-30T13:29:02;7.88;;;3.22;;
3696;SDS011;60662;48.810;8.872;2024-01-30T13:30:04;6.35;;;3.15;;
3696;SDS011;60662;48.810;8.872;2024-01-30T13:31:06;4.10;;;2.08;;
3696;SDS011;60662;48.810;8.872;2024-01-30T13:32:07;12.90;;;2.92;;
3696;SDS011;60662;48.810;8.872;2024-01-30T13:33:09;7.10;;;2.67;;
3696;SDS011;60662;48.810;8.872;2024-01-30T13:34:10;9.50;;;3.10;;
3696;SDS011;60662;48.810;8.872;2024-01-30T13:35:12;8.75;;;3.15;;
3696;SDS011;60662;48.810;8.872;2024-01-30T13:36:14;6.57;;;3.10;;
3696;SDS011;60662;48.810;8.872;2024-01-30T13:37:16;6.03;;;2.88;;
3696;SDS011;60662;48.810;8.872;2024-01-30T13:38:17;7.97;;;3.13;;
3696;SDS011;60662;48.810;8.872;2024-01-30T13:39:18;8.57;;;2.90;;
3696;SDS011;60662;48.810;8.872;2024-01-30T13:40:23;8.50;;;2.95;;
3696;SDS011;60662;48.810;8.872;2024-01-30T13:41:24;4.88;;;2.30;;
3696;SDS011;60662;48.810;8.872;2024-01-30T13:42:26;10.52;;;2.53;;
3696;SDS011;60662;48.810;8.872;2024-01-30T13:43:27;3.83;;;2.20;;
3696;SDS011;60662;48.810;8.872;2024-01-30T13:44:28;5.75;;;2.90;;
3696;SDS011;60662;48.810;8.872;2024-01-30T13:45:30;7.68;;;2.88;;
3696;SDS011;60662;48.810;8.872;2024-01-30T13:46:31;6.45;;;3.25;;
3696;SDS011;60662;48.810;8.872;2024-01-30T13:47:33;5.70;;;3.10;;
3696;SDS011;60662;48.810;8.872;2024-01-30T13:48:34;11.73;;;3.28;;
3696;SDS011;60662;48.810;8.872;2024-01-30T13:49:36;7.25;;;3.00;;
3696;SDS011;60662;48.810;8.872;2024-01-30T13:50:37;5.88;;;3.00;;
3696;SDS011;60662;48.810;8.872;2024-01-30T13:51:38;7.18;;;2.90;;
3696;SDS011;60662;48.810;8.872;2024-01-30T13:52:40;4.18;;;2.42;;
3696;SDS011;60662;48.810;8.872;2024-01-30T13:53:45;6.00;;;2.58;;
3696;SDS011;60662;48.810;8.872;2024-01-30T13:54:47;6.15;;;2.70;;
3696;SDS011;60662;48.810;8.872;2024-01-30T13:55:48;4.63;;;2.38;;
3696;SDS011;60662;48.810;8.872;2024-01-30T13:56:50;8.90;;;3.30;;
3696;SDS011;60662;48.810;8.872;2024-01-30T13:57:51;5.90;;;3.00;;
3696;SDS011;60662;48.810;8.872;2024-01-30T13:58:52;8.48;;;2.83;;
3696;SDS011;60662;48.810;8.872;2024-01-30T13:59:54;6.95;;;2.10;;
3696;SDS011;60662;48.810;8.872;2024-01-30T14:00:55;5.28;;;2.83;;
3696;SDS011;60662;48.810;8.872;2024-01-30T14:01:57;5.50;;;2.60;;
3696;SDS011;60662;48.810;8.872;2024-01-30T14:02:58;4.68;;;2.60;;
3696;SDS011;60662;48.810;8.872;2024-01-30T14:04:00;7.45;;;2.60;;
3696;SDS011;60662;48.810;8.872;2024-01-30T14:05:01;5.93;;;2.67;;
3696;SDS011;60662;48.810;8.872;2024-01-30T14:06:03;11.07;;;4.60;;
3696;SDS011;60662;48.810;8.872;2024-01-30T14:07:04;21.02;;;5.10;;
3696;SDS011;60662;48.810;8.872;2024-01-30T14:08:07;12.43;;;4.82;;
3696;SDS011;60662;48.810;8.872;2024-01-30T14:09:10;9.63;;;4.15;;
3696;SDS011;60662;48.810;8.872;2024-01-30T14:10:12;11.40;;;4.40;;